sensor_id;sensor_type;location;lat;lon;timestamp;pressure;altitude;pressure_sealevel;temperature;humidity
54512;BME280;40419;47.438;19.026;2022-08-19T00:00:41;99344.75;;;25.44;54.48
54512;BME280;40419;47.438;19.026;2022-08-19T00:03:09;99345.91;;;25.29;55.88
54512;BME280;40419;47.438;19.026;2022-08-19T00:05:42;99349.72;;;25.19;56.17
54512;BME280;40419;47.438;19.026;2022-08-19T00:08:08;99341.34;;;25.10;56.04
54512;BME280;40419;47.438;19.026;2022-08-19T00:10:34;99340.84;;;25.08;56.35
54512;BME280;40419;47.438;19.026;2022-08-19T00:13:04;99344.41;;;25.09;56.08
54512;BME280;40419;47.438;19.026;2022-08-19T00:15:32;99336.41;;;25.07;56.02
54512;BME280;40419;47.438;19.026;2022-08-19T00:18:00;99339.19;;;25.07;56.02
54512;BME280;40419;47.438;19.026;2022-08-19T00:20:28;99353.16;;;25.02;56.40
54512;BME280;40419;47.438;19.026;2022-08-19T00:22:54;99341.59;;;25.00;56.62
54512;BME280;40419;47.438;19.026;2022-08-19T00:25:20;99343.13;;;24.92;57.13
54512;BME280;40419;47.438;19.026;2022-08-19T00:27:45;99349.28;;;24.89;56.25
54512;BME280;40419;47.438;19.026;2022-08-19T00:30:11;99345.22;;;24.87;56.40
54512;BME280;40419;47.438;19.026;2022-08-19T00:32:37;99351.06;;;24.85;56.35
54512;BME280;40419;47.438;19.026;2022-08-19T00:35:05;99341.59;;;24.86;56.94
54512;BME280;40419;47.438;19.026;2022-08-19T00:37:33;99348.69;;;24.79;56.60
54512;BME280;40419;47.438;19.026;2022-08-19T00:40:05;99351.38;;;24.84;56.20
54512;BME280;40419;47.438;19.026;2022-08-19T00:42:31;99343.44;;;24.91;56.57
54512;BME280;40419;47.438;19.026;2022-08-19T00:45:00;99343.69;;;24.81;57.12
54512;BME280;40419;47.438;19.026;2022-08-19T00:47:30;99350.03;;;24.81;57.22
54512;BME280;40419;47.438;19.026;2022-08-19T00:49:59;99348.59;;;24.84;56.54
54512;BME280;40419;47.438;19.026;2022-08-19T00:52:32;99330.16;;;24.79;56.35
54512;BME280;40419;47.438;19.026;2022-08-19T00:55:04;99327.66;;;24.91;55.44
54512;BME280;40419;47.438;19.026;2022-08-19T00:57:38;99330.00;;;24.98;55.83
54512;BME280;40419;47.438;19.026;2022-08-19T01:00:10;99330.63;;;24.95;56.88
54512;BME280;40419;47.438;19.026;2022-08-19T01:02:37;99335.38;;;24.81;56.86
54512;BME280;40419;47.438;19.026;2022-08-19T01:05:11;99323.28;;;24.76;56.77
54512;BME280;40419;47.438;19.026;2022-08-19T01:07:39;99329.44;;;24.73;57.27
54512;BME280;40419;47.438;19.026;2022-08-19T01:10:16;99330.47;;;24.77;57.68
54512;BME280;40419;47.438;19.026;2022-08-19T01:12:47;99332.91;;;24.65;58.29
54512;BME280;40419;47.438;19.026;2022-08-19T01:15:16;99335.06;;;24.68;57.48
54512;BME280;40419;47.438;19.026;2022-08-19T01:17:43;99325.81;;;24.87;55.28
54512;BME280;40419;47.438;19.026;2022-08-19T01:20:13;99320.81;;;24.75;57.22
54512;BME280;40419;47.438;19.026;2022-08-19T01:22:48;99323.19;;;24.68;57.64
54512;BME280;40419;47.438;19.026;2022-08-19T01:25:20;99331.00;;;24.66;58.00
54512;BME280;40419;47.438;19.026;2022-08-19T01:27:50;99322.78;;;24.74;56.90
54512;BME280;40419;47.438;19.026;2022-08-19T01:30:25;99316.53;;;24.69;57.62
54512;BME280;40419;47.438;19.026;2022-08-19T01:32:57;99323.81;;;24.65;57.72
54512;BME280;40419;47.438;19.026;2022-08-19T01:35:28;99313.16;;;24.72;56.39
54512;BME280;40419;47.438;19.026;2022-08-19T01:38:07;99303.91;;;24.76;55.72
54512;BME280;40419;47.438;19.026;2022-08-19T01:40:38;99314.81;;;24.95;55.51
54512;BME280;40419;47.438;19.026;2022-08-19T01:43:04;99315.25;;;24.89;55.95
54512;BME280;40419;47.438;19.026;2022-08-19T01:45:34;99315.78;;;24.77;56.46
54512;BME280;40419;47.438;19.026;2022-08-19T01:48:04;99315.25;;;24.89;55.38
54512;BME280;40419;47.438;19.026;2022-08-19T01:50:36;99305.06;;;24.98;55.37
54512;BME280;40419;47.438;19.026;2022-08-19T01:53:05;99294.94;;;24.93;55.45
54512;BME280;40419;47.438;19.026;2022-08-19T01:55:31;99303.06;;;24.90;55.60
54512;BME280;40419;47.438;19.026;2022-08-19T01:58:02;99281.03;;;25.07;54.60
54512;BME280;40419;47.438;19.026;2022-08-19T02:00:31;99281.03;;;25.07;55.09
54512;BME280;40419;47.438;19.026;2022-08-19T02:02:59;99282.28;;;25.01;55.44
54512;BME280;40419;47.438;19.026;2022-08-19T02:05:28;99275.63;;;25.02;55.79
54512;BME280;40419;47.438;19.026;2022-08-19T02:08:02;99279.50;;;24.79;56.33
54512;BME280;40419;47.438;19.026;2022-08-19T02:10:28;99281.91;;;24.94;55.63
54512;BME280;40419;47.438;19.026;2022-08-19T02:12:59;99276.00;;;24.87;56.00
54512;BME280;40419;47.438;19.026;2022-08-19T02:15:32;99274.16;;;24.82;56.20
54512;BME280;40419;47.438;19.026;2022-08-19T02:18:01;99273.09;;;24.92;54.91
54512;BME280;40419;47.438;19.026;2022-08-19T02:20:26;99272.38;;;24.86;55.21
54512;BME280;40419;47.438;19.026;2022-08-19T02:22:56;99272.72;;;25.07;54.46
54512;BME280;40419;47.438;19.026;2022-08-19T02:25:24;99274.84;;;24.88;55.28
54512;BME280;40419;47.438;19.026;2022-08-19T02:27:52;99263.66;;;24.93;55.13
54512;BME280;40419;47.438;19.026;2022-08-19T02:30:20;99259.72;;;24.71;55.75
54512;BME280;40419;47.438;19.026;2022-08-19T02:32:48;99260.81;;;24.84;55.45
54512;BME280;40419;47.438;19.026;2022-08-19T02:35:19;99266.91;;;24.72;56.40
54512;BME280;40419;47.438;19.026;2022-08-19T02:37:45;99268.09;;;24.80;55.41
54512;BME280;40419;47.438;19.026;2022-08-19T02:40:33;99271.75;;;24.89;56.00
54512;BME280;40419;47.438;19.026;2022-08-19T02:43:05;99287.75;;;24.92;55.32
54512;BME280;40419;47.438;19.026;2022-08-19T02:45:38;99281.44;;;24.78;55.49
54512;BME280;40419;47.438;19.026;2022-08-19T02:48:09;99266.59;;;24.74;55.80
54512;BME280;40419;47.438;19.026;2022-08-19T02:50:42;99271.53;;;24.63;56.60
54512;BME280;40419;47.438;19.026;2022-08-19T02:53:13;99280.78;;;24.58;57.16
54512;BME280;40419;47.438;19.026;2022-08-19T02:55:46;99284.63;;;24.57;57.72
54512;BME280;40419;47.438;19.026;2022-08-19T02:58:14;99298.59;;;24.52;56.66
54512;BME280;40419;47.438;19.026;2022-08-19T03:00:48;99298.78;;;24.56;57.28
54512;BME280;40419;47.438;19.026;2022-08-19T03:03:17;99296.25;;;24.59;56.25
54512;BME280;40419;47.438;19.026;2022-08-19T03:05:44;99290.34;;;24.89;54.84
54512;BME280;40419;47.438;19.026;2022-08-19T03:08:13;99299.25;;;24.86;55.25
54512;BME280;40419;47.438;19.026;2022-08-19T03:10:43;99298.16;;;24.87;55.46
54512;BME280;40419;47.438;19.026;2022-08-19T03:13:17;99298.50;;;24.94;55.04
54512;BME280;40419;47.438;19.026;2022-08-19T03:15:46;99295.47;;;24.82;55.55
54512;BME280;40419;47.438;19.026;2022-08-19T03:18:15;99304.94;;;24.67;55.79
54512;BME280;40419;47.438;19.026;2022-08-19T03:20:48;99314.38;;;24.52;57.02
54512;BME280;40419;47.438;19.026;2022-08-19T03:23:22;99309.97;;;24.51;57.07
54512;BME280;40419;47.438;19.026;2022-08-19T03:25:52;99313.06;;;24.35;57.23
54512;BME280;40419;47.438;19.026;2022-08-19T03:28:23;99313.88;;;24.36;57.88
54512;BME280;40419;47.438;19.026;2022-08-19T03:31:12;99320.00;;;24.61;56.64
54512;BME280;40419;47.438;19.026;2022-08-19T03:33:40;99317.25;;;24.61;56.68
54512;BME280;40419;47.438;19.026;2022-08-19T03:36:14;99317.84;;;24.44;57.36
54512;BME280;40419;47.438;19.026;2022-08-19T03:38:46;99325.78;;;24.64;56.44
54512;BME280;40419;47.438;19.026;2022-08-19T03:41:14;99324.13;;;24.49;57.10
54512;BME280;40419;47.438;19.026;2022-08-19T03:43:46;99312.94;;;24.54;56.78
54512;BME280;40419;47.438;19.026;2022-08-19T03:46:15;99329.84;;;24.39;57.04
54512;BME280;40419;47.438;19.026;2022-08-19T03:48:43;99326.91;;;24.35;58.06
54512;BME280;40419;47.438;19.026;2022-08-19T03:51:19;99332.94;;;24.23;59.03
54512;BME280;40419;47.438;19.026;2022-08-19T03:53:46;99324.94;;;24.22;59.54
54512;BME280;40419;47.438;19.026;2022-08-19T03:56:12;99336.81;;;24.09;59.68
54512;BME280;40419;47.438;19.026;2022-08-19T03:58:43;99332.31;;;24.13;59.25
54512;BME280;40419;47.438;19.026;2022-08-19T04:01:14;99327.91;;;24.12;59.21
54512;BME280;40419;47.438;19.026;2022-08-19T04:03:40;99324.22;;;24.02;60.24
54512;BME280;40419;47.438;19.026;2022-08-19T04:06:14;99332.50;;;24.02;61.29
54512;BME280;40419;47.438;19.026;2022-08-19T04:08:41;99337.59;;;23.95;61.43
54512;BME280;40419;47.438;19.026;2022-08-19T04:11:15;99334.34;;;24.21;58.91
54512;BME280;40419;47.438;19.026;2022-08-19T04:13:41;99344.00;;;24.10;59.88
54512;BME280;40419;47.438;19.026;2022-08-19T04:16:09;99350.03;;;24.12;59.56
54512;BME280;40419;47.438;19.026;2022-08-19T04:18:39;99363.44;;;24.18;58.84
54512;BME280;40419;47.438;19.026;2022-08-19T04:21:06;99354.94;;;24.29;58.58
54512;BME280;40419;47.438;19.026;2022-08-19T04:23:35;99347.19;;;24.31;58.63
54512;BME280;40419;47.438;19.026;2022-08-19T04:26:03;99346.97;;;24.55;57.33
54512;BME280;40419;47.438;19.026;2022-08-19T04:28:31;99349.03;;;24.63;56.82
54512;BME280;40419;47.438;19.026;2022-08-19T04:31:01;99355.16;;;24.46;58.11
54512;BME280;40419;47.438;19.026;2022-08-19T04:33:29;99355.16;;;24.46;57.15
54512;BME280;40419;47.438;19.026;2022-08-19T04:35:58;99367.91;;;24.61;57.49
54512;BME280;40419;47.438;19.026;2022-08-19T04:38:23;99367.66;;;24.71;57.58
54512;BME280;40419;47.438;19.026;2022-08-19T04:40:50;99372.56;;;24.47;58.85
54512;BME280;40419;47.438;19.026;2022-08-19T04:43:38;99366.84;;;24.85;57.31
54512;BME280;40419;47.438;19.026;2022-08-19T04:46:08;99361.53;;;24.61;56.94
54512;BME280;40419;47.438;19.026;2022-08-19T04:48:38;99364.22;;;24.66;58.00
54512;BME280;40419;47.438;19.026;2022-08-19T04:51:11;99362.56;;;24.65;57.54
54512;BME280;40419;47.438;19.026;2022-08-19T04:53:44;99359.59;;;24.61;58.24
54512;BME280;40419;47.438;19.026;2022-08-19T04:56:14;99364.31;;;24.74;57.81
54512;BME280;40419;47.438;19.026;2022-08-19T04:58:47;99369.84;;;24.74;57.56
54512;BME280;40419;47.438;19.026;2022-08-19T05:01:23;99375.78;;;24.68;59.21
54512;BME280;40419;47.438;19.026;2022-08-19T05:03:49;99374.22;;;24.75;58.70
54512;BME280;40419;47.438;19.026;2022-08-19T05:06:19;99364.25;;;25.02;57.57
54512;BME280;40419;47.438;19.026;2022-08-19T05:08:48;99374.53;;;24.74;57.67
54512;BME280;40419;47.438;19.026;2022-08-19T05:11:18;99370.84;;;24.79;57.60
54512;BME280;40419;47.438;19.026;2022-08-19T05:13:48;99368.91;;;24.65;58.09
54512;BME280;40419;47.438;19.026;2022-08-19T05:16:16;99376.66;;;24.91;57.58
54512;BME280;40419;47.438;19.026;2022-08-19T05:18:43;99379.75;;;25.03;56.89
54512;BME280;40419;47.438;19.026;2022-08-19T05:21:32;99371.78;;;25.10;56.67
54512;BME280;40419;47.438;19.026;2022-08-19T05:24:20;99371.94;;;25.05;56.42
54512;BME280;40419;47.438;19.026;2022-08-19T05:26:50;99376.94;;;25.17;56.11
54512;BME280;40419;47.438;19.026;2022-08-19T05:29:20;99374.25;;;25.26;56.30
54512;BME280;40419;47.438;19.026;2022-08-19T05:31:47;99367.97;;;25.34;56.19
54512;BME280;40419;47.438;19.026;2022-08-19T05:34:16;99369.63;;;25.21;55.22
54512;BME280;40419;47.438;19.026;2022-08-19T05:36:50;99371.88;;;25.33;55.69
54512;BME280;40419;47.438;19.026;2022-08-19T05:39:20;99371.06;;;25.19;56.05
54512;BME280;40419;47.438;19.026;2022-08-19T05:41:52;99372.47;;;25.44;54.90
54512;BME280;40419;47.438;19.026;2022-08-19T05:44:18;99371.88;;;25.19;55.71
54512;BME280;40419;47.438;19.026;2022-08-19T05:46:45;99371.22;;;25.36;55.46
54512;BME280;40419;47.438;19.026;2022-08-19T05:49:16;99375.47;;;25.56;54.50
54512;BME280;40419;47.438;19.026;2022-08-19T05:51:46;99369.88;;;25.70;55.64
54512;BME280;40419;47.438;19.026;2022-08-19T05:54:14;99366.59;;;25.45;56.15
54512;BME280;40419;47.438;19.026;2022-08-19T05:56:41;99362.94;;;25.59;54.89
54512;BME280;40419;47.438;19.026;2022-08-19T05:59:11;99370.50;;;25.67;55.20
54512;BME280;40419;47.438;19.026;2022-08-19T06:01:41;99375.84;;;25.63;55.61
54512;BME280;40419;47.438;19.026;2022-08-19T06:04:09;99369.09;;;25.78;54.77
54512;BME280;40419;47.438;19.026;2022-08-19T06:06:35;99371.75;;;25.61;54.52
54512;BME280;40419;47.438;19.026;2022-08-19T06:09:03;99368.22;;;25.69;53.69
54512;BME280;40419;47.438;19.026;2022-08-19T06:14:14;99362.28;;;26.07;53.27
54512;BME280;40419;47.438;19.026;2022-08-19T06:16:46;99364.31;;;25.93;53.39
54512;BME280;40419;47.438;19.026;2022-08-19T06:19:16;99368.88;;;25.97;53.58
54512;BME280;40419;47.438;19.026;2022-08-19T06:21:45;99364.25;;;25.84;53.30
54512;BME280;40419;47.438;19.026;2022-08-19T06:24:15;99363.91;;;26.08;53.38
54512;BME280;40419;47.438;19.026;2022-08-19T06:26:46;99355.59;;;26.08;52.97
54512;BME280;40419;47.438;19.026;2022-08-19T06:29:17;99348.53;;;26.33;52.46
54512;BME280;40419;47.438;19.026;2022-08-19T06:31:49;99345.06;;;26.28;52.35
54512;BME280;40419;47.438;19.026;2022-08-19T06:34:15;99342.78;;;26.30;53.04
54512;BME280;40419;47.438;19.026;2022-08-19T06:36:43;99347.56;;;26.38;52.51
54512;BME280;40419;47.438;19.026;2022-08-19T06:39:12;99357.81;;;26.78;51.30
54512;BME280;40419;47.438;19.026;2022-08-19T06:41:45;99354.66;;;26.62;52.15
54512;BME280;40419;47.438;19.026;2022-08-19T06:44:17;99349.97;;;26.80;51.38
54512;BME280;40419;47.438;19.026;2022-08-19T06:46:43;99345.06;;;26.68;51.94
54512;BME280;40419;47.438;19.026;2022-08-19T06:49:09;99341.97;;;26.78;50.93
54512;BME280;40419;47.438;19.026;2022-08-19T06:51:42;99341.38;;;27.08;50.50
54512;BME280;40419;47.438;19.026;2022-08-19T06:54:10;99344.31;;;27.20;49.52
54512;BME280;40419;47.438;19.026;2022-08-19T06:56:38;99343.00;;;27.00;49.87
54512;BME280;40419;47.438;19.026;2022-08-19T06:59:11;99352.47;;;27.25;50.15
54512;BME280;40419;47.438;19.026;2022-08-19T07:01:39;99362.78;;;27.59;49.18
54512;BME280;40419;47.438;19.026;2022-08-19T07:04:08;99368.06;;;27.52;49.17
54512;BME280;40419;47.438;19.026;2022-08-19T07:06:36;99370.63;;;27.75;48.99
54512;BME280;40419;47.438;19.026;2022-08-19T07:09:14;99375.22;;;27.62;49.20
54512;BME280;40419;47.438;19.026;2022-08-19T07:11:47;99381.25;;;27.73;50.75
54512;BME280;40419;47.438;19.026;2022-08-19T07:14:16;99385.69;;;27.74;48.40
54512;BME280;40419;47.438;19.026;2022-08-19T07:16:49;99374.50;;;27.91;48.26
54512;BME280;40419;47.438;19.026;2022-08-19T07:19:19;99382.06;;;28.00;48.96
54512;BME280;40419;47.438;19.026;2022-08-19T07:21:49;99373.63;;;28.17;47.30
54512;BME280;40419;47.438;19.026;2022-08-19T07:24:17;99380.03;;;28.18;48.15
54512;BME280;40419;47.438;19.026;2022-08-19T07:26:47;99378.78;;;28.45;45.85
54512;BME280;40419;47.438;19.026;2022-08-19T07:29:19;99379.75;;;28.49;46.27
54512;BME280;40419;47.438;19.026;2022-08-19T07:31:49;99379.34;;;28.68;45.78
54512;BME280;40419;47.438;19.026;2022-08-19T07:34:14;99382.66;;;28.61;45.09
54512;BME280;40419;47.438;19.026;2022-08-19T07:36:41;99375.38;;;28.78;44.95
54512;BME280;40419;47.438;19.026;2022-08-19T07:39:11;99376.75;;;28.63;45.02
54512;BME280;40419;47.438;19.026;2022-08-19T07:41:41;99376.53;;;28.77;45.16
54512;BME280;40419;47.438;19.026;2022-08-19T07:44:10;99370.28;;;28.80;44.05
54512;BME280;40419;47.438;19.026;2022-08-19T07:46:40;99366.03;;;29.04;42.95
54512;BME280;40419;47.438;19.026;2022-08-19T07:49:07;99369.84;;;29.20;42.65
54512;BME280;40419;47.438;19.026;2022-08-19T07:51:36;99373.59;;;29.24;41.88
54512;BME280;40419;47.438;19.026;2022-08-19T07:54:04;99374.22;;;29.30;42.21
54512;BME280;40419;47.438;19.026;2022-08-19T07:56:32;99389.56;;;29.57;41.96
54512;BME280;40419;47.438;19.026;2022-08-19T07:58:57;99385.75;;;29.62;41.85
54512;BME280;40419;47.438;19.026;2022-08-19T08:01:27;99372.28;;;29.64;41.15
54512;BME280;40419;47.438;19.026;2022-08-19T08:03:57;99383.03;;;29.53;40.97
54512;BME280;40419;47.438;19.026;2022-08-19T08:06:42;99381.91;;;29.66;41.41
54512;BME280;40419;47.438;19.026;2022-08-19T08:09:33;99383.44;;;29.85;41.30
54512;BME280;40419;47.438;19.026;2022-08-19T08:12:03;99385.19;;;29.68;40.21
54512;BME280;40419;47.438;19.026;2022-08-19T08:14:33;99379.28;;;29.70;41.08
54512;BME280;40419;47.438;19.026;2022-08-19T08:17:04;99386.00;;;30.02;40.26
54512;BME280;40419;47.438;19.026;2022-08-19T08:19:32;99382.47;;;29.81;40.60
54512;BME280;40419;47.438;19.026;2022-08-19T08:22:01;99389.34;;;29.83;40.62
54512;BME280;40419;47.438;19.026;2022-08-19T08:24:29;99383.22;;;30.02;39.14
54512;BME280;40419;47.438;19.026;2022-08-19T08:27:04;99381.38;;;30.07;39.25
54512;BME280;40419;47.438;19.026;2022-08-19T08:29:32;99383.25;;;30.15;40.20
54512;BME280;40419;47.438;19.026;2022-08-19T08:31:59;99384.53;;;30.17;39.38
54512;BME280;40419;47.438;19.026;2022-08-19T08:34:24;99388.03;;;30.39;39.17
54512;BME280;40419;47.438;19.026;2022-08-19T08:36:50;99383.41;;;30.31;39.34
54512;BME280;40419;47.438;19.026;2022-08-19T08:39:20;99378.53;;;30.65;39.58
54512;BME280;40419;47.438;19.026;2022-08-19T08:41:49;99372.50;;;30.50;39.41
54512;BME280;40419;47.438;19.026;2022-08-19T08:44:24;99376.69;;;30.56;39.63
54512;BME280;40419;47.438;19.026;2022-08-19T08:46:59;99359.34;;;30.51;39.41
54512;BME280;40419;47.438;19.026;2022-08-19T08:49:59;99349.81;;;30.52;38.91
54512;BME280;40419;47.438;19.026;2022-08-19T08:52:39;99341.09;;;30.53;39.64
54512;BME280;40419;47.438;19.026;2022-08-19T08:55:16;99347.47;;;30.66;38.25
54512;BME280;40419;47.438;19.026;2022-08-19T09:00:37;99359.56;;;30.95;38.96
54512;BME280;40419;47.438;19.026;2022-08-19T09:03:07;99359.44;;;30.91;38.84
54512;BME280;40419;47.438;19.026;2022-08-19T09:06:04;99353.03;;;31.03;38.60
54512;BME280;40419;47.438;19.026;2022-08-19T09:09:05;99354.69;;;31.33;38.58
54512;BME280;40419;47.438;19.026;2022-08-19T09:14:10;99357.88;;;31.59;36.55
54512;BME280;40419;47.438;19.026;2022-08-19T09:16:42;99356.59;;;31.57;36.80
54512;BME280;40419;47.438;19.026;2022-08-19T09:19:08;99354.28;;;31.59;36.49
54512;BME280;40419;47.438;19.026;2022-08-19T09:21:34;99341.94;;;31.76;35.78
54512;BME280;40419;47.438;19.026;2022-08-19T09:24:04;99340.94;;;31.68;36.23
54512;BME280;40419;47.438;19.026;2022-08-19T09:26:31;99339.44;;;31.87;36.16
54512;BME280;40419;47.438;19.026;2022-08-19T09:29:01;99343.34;;;31.98;36.93
54512;BME280;40419;47.438;19.026;2022-08-19T09:31:30;99334.41;;;32.08;35.32
54512;BME280;40419;47.438;19.026;2022-08-19T09:34:00;99325.19;;;31.92;36.71
54512;BME280;40419;47.438;19.026;2022-08-19T09:36:30;99327.91;;;32.04;35.75
54512;BME280;40419;47.438;19.026;2022-08-19T09:39:03;99331.78;;;32.00;35.70
54512;BME280;40419;47.438;19.026;2022-08-19T09:41:34;99320.94;;;31.98;36.28
54512;BME280;40419;47.438;19.026;2022-08-19T09:44:04;99335.22;;;32.09;36.07
54512;BME280;40419;47.438;19.026;2022-08-19T09:46:30;99319.47;;;31.88;35.76
54512;BME280;40419;47.438;19.026;2022-08-19T09:49:01;99334.38;;;31.92;36.36
54512;BME280;40419;47.438;19.026;2022-08-19T09:51:27;99318.50;;;31.96;35.40
54512;BME280;40419;47.438;19.026;2022-08-19T09:54:00;99305.50;;;32.04;36.64
54512;BME280;40419;47.438;19.026;2022-08-19T09:56:26;99304.84;;;32.43;35.46
54512;BME280;40419;47.438;19.026;2022-08-19T09:58:52;99302.41;;;32.41;35.42
54512;BME280;40419;47.438;19.026;2022-08-19T10:01:25;99297.47;;;32.35;35.57
54512;BME280;40419;47.438;19.026;2022-08-19T10:03:56;99299.09;;;32.36;35.52
54512;BME280;40419;47.438;19.026;2022-08-19T10:06:23;99301.06;;;32.35;34.58
54512;BME280;40419;47.438;19.026;2022-08-19T10:08:49;99299.19;;;32.39;35.65
54512;BME280;40419;47.438;19.026;2022-08-19T10:11:19;99303.44;;;32.33;34.91
54512;BME280;40419;47.438;19.026;2022-08-19T10:13:46;99301.53;;;32.37;35.01
54512;BME280;40419;47.438;19.026;2022-08-19T10:16:14;99298.81;;;32.41;35.14
54512;BME280;40419;47.438;19.026;2022-08-19T10:18:45;99297.53;;;32.54;35.00
54512;BME280;40419;47.438;19.026;2022-08-19T10:21:18;99280.34;;;32.56;34.74
54512;BME280;40419;47.438;19.026;2022-08-19T10:23:49;99292.97;;;32.81;34.21
54512;BME280;40419;47.438;19.026;2022-08-19T10:26:26;99284.75;;;32.73;33.73
54512;BME280;40419;47.438;19.026;2022-08-19T10:28:56;99282.13;;;32.64;35.18
54512;BME280;40419;47.438;19.026;2022-08-19T10:31:26;99286.56;;;32.81;33.93
54512;BME280;40419;47.438;19.026;2022-08-19T10:33:55;99299.16;;;32.91;33.78
54512;BME280;40419;47.438;19.026;2022-08-19T10:36:28;99293.34;;;32.99;33.84
54512;BME280;40419;47.438;19.026;2022-08-19T10:38:56;99294.75;;;33.09;34.15
54512;BME280;40419;47.438;19.026;2022-08-19T10:41:29;99302.94;;;33.18;33.54
54512;BME280;40419;47.438;19.026;2022-08-19T10:43:58;99287.31;;;33.36;33.22
54512;BME280;40419;47.438;19.026;2022-08-19T10:46:26;99300.69;;;33.43;34.01
54512;BME280;40419;47.438;19.026;2022-08-19T10:48:55;99288.03;;;33.53;31.22
54512;BME280;40419;47.438;19.026;2022-08-19T10:51:25;99290.03;;;33.52;33.40
54512;BME280;40419;47.438;19.026;2022-08-19T10:54:09;99295.53;;;33.68;33.05
54512;BME280;40419;47.438;19.026;2022-08-19T10:56:38;99301.97;;;33.69;31.66
54512;BME280;40419;47.438;19.026;2022-08-19T10:59:28;99288.53;;;33.59;31.75
54512;BME280;40419;47.438;19.026;2022-08-19T11:01:59;99293.63;;;33.72;31.59
54512;BME280;40419;47.438;19.026;2022-08-19T11:04:25;99289.16;;;33.91;31.32
54512;BME280;40419;47.438;19.026;2022-08-19T11:06:53;99286.44;;;33.98;32.59
54512;BME280;40419;47.438;19.026;2022-08-19T11:09:22;99284.53;;;33.79;31.24
54512;BME280;40419;47.438;19.026;2022-08-19T11:11:58;99288.53;;;33.78;30.93
54512;BME280;40419;47.438;19.026;2022-08-19T11:14:24;99291.47;;;33.85;31.08
54512;BME280;40419;47.438;19.026;2022-08-19T11:16:56;99283.03;;;33.85;32.52
54512;BME280;40419;47.438;19.026;2022-08-19T11:19:30;99289.34;;;34.02;31.53
54512;BME280;40419;47.438;19.026;2022-08-19T11:21:56;99289.72;;;34.00;31.05
54512;BME280;40419;47.438;19.026;2022-08-19T11:24:27;99286.44;;;34.21;29.95
54512;BME280;40419;47.438;19.026;2022-08-19T11:27:05;99286.28;;;33.87;31.84
54512;BME280;40419;47.438;19.026;2022-08-19T11:29:32;99282.16;;;33.81;30.63
54512;BME280;40419;47.438;19.026;2022-08-19T11:32:08;99288.03;;;33.96;31.61
54512;BME280;40419;47.438;19.026;2022-08-19T11:34:35;99288.63;;;34.08;31.32
54512;BME280;40419;47.438;19.026;2022-08-19T11:37:06;99281.22;;;34.20;31.23
54512;BME280;40419;47.438;19.026;2022-08-19T11:39:35;99282.97;;;34.05;30.91
54512;BME280;40419;47.438;19.026;2022-08-19T11:42:04;99274.59;;;34.08;30.81
54512;BME280;40419;47.438;19.026;2022-08-19T11:44:50;99275.59;;;34.20;30.50
54512;BME280;40419;47.438;19.026;2022-08-19T11:47:18;99282.34;;;34.15;31.65
54512;BME280;40419;47.438;19.026;2022-08-19T11:49:45;99272.03;;;34.23;31.75
54512;BME280;40419;47.438;19.026;2022-08-19T11:52:14;99274.97;;;34.30;31.04
54512;BME280;40419;47.438;19.026;2022-08-19T11:54:40;99271.31;;;34.26;29.87
54512;BME280;40419;47.438;19.026;2022-08-19T11:57:06;99279.19;;;34.20;31.33
54512;BME280;40419;47.438;19.026;2022-08-19T11:59:31;99267.56;;;33.95;32.02
54512;BME280;40419;47.438;19.026;2022-08-19T12:01:57;99264.50;;;33.81;30.59
54512;BME280;40419;47.438;19.026;2022-08-19T12:04:28;99268.31;;;33.92;30.94
54512;BME280;40419;47.438;19.026;2022-08-19T12:06:54;99270.78;;;33.74;31.19
54512;BME280;40419;47.438;19.026;2022-08-19T12:09:20;99270.88;;;33.78;31.77
54512;BME280;40419;47.438;19.026;2022-08-19T12:11:47;99266.28;;;33.69;31.02
54512;BME280;40419;47.438;19.026;2022-08-19T12:14:13;99258.19;;;33.87;31.17
54512;BME280;40419;47.438;19.026;2022-08-19T12:16:44;99269.44;;;33.87;31.30
54512;BME280;40419;47.438;19.026;2022-08-19T12:19:12;99265.00;;;33.86;31.89
54512;BME280;40419;47.438;19.026;2022-08-19T12:21:40;99274.47;;;34.01;32.42
54512;BME280;40419;47.438;19.026;2022-08-19T12:24:08;99273.75;;;34.28;31.41
54512;BME280;40419;47.438;19.026;2022-08-19T12:26:35;99267.78;;;34.33;29.67
54512;BME280;40419;47.438;19.026;2022-08-19T12:29:05;99267.75;;;34.29;30.57
54512;BME280;40419;47.438;19.026;2022-08-19T12:31:36;99278.31;;;34.16;30.89
54512;BME280;40419;47.438;19.026;2022-08-19T12:34:07;99268.34;;;34.19;31.18
54512;BME280;40419;47.438;19.026;2022-08-19T12:36:40;99269.22;;;34.00;31.04
54512;BME280;40419;47.438;19.026;2022-08-19T12:39:06;99255.31;;;34.07;31.02
54512;BME280;40419;47.438;19.026;2022-08-19T12:41:36;99254.44;;;34.03;31.04
54512;BME280;40419;47.438;19.026;2022-08-19T12:44:05;99254.44;;;34.03;30.30
54512;BME280;40419;47.438;19.026;2022-08-19T12:46:35;99246.75;;;34.00;30.60
54512;BME280;40419;47.438;19.026;2022-08-19T12:49:03;99237.28;;;34.08;29.91
54512;BME280;40419;47.438;19.026;2022-08-19T12:51:29;99225.97;;;34.04;29.82
54512;BME280;40419;47.438;19.026;2022-08-19T12:53:59;99230.19;;;33.91;30.60
54512;BME280;40419;47.438;19.026;2022-08-19T12:56:24;99221.53;;;34.26;29.70
54512;BME280;40419;47.438;19.026;2022-08-19T12:58:53;99220.69;;;34.53;30.34
54512;BME280;40419;47.438;19.026;2022-08-19T13:01:20;99232.78;;;34.53;29.63
54512;BME280;40419;47.438;19.026;2022-08-19T13:03:48;99232.28;;;34.48;29.45
54512;BME280;40419;47.438;19.026;2022-08-19T13:06:16;99232.50;;;34.35;30.03
54512;BME280;40419;47.438;19.026;2022-08-19T13:08:43;99237.41;;;34.42;30.57
54512;BME280;40419;47.438;19.026;2022-08-19T13:11:17;99233.72;;;34.65;28.95
54512;BME280;40419;47.438;19.026;2022-08-19T13:13:44;99233.78;;;34.68;29.69